sensor_id;sensor_type;location;lat;lon;timestamp;pressure;altitude;pressure_sealevel;temperature;humidity
38058;BME280;23862;51.972;4.618;2022-09-09T00:04:33;-25484.56;;;14.84;100.00
38058;BME280;23862;51.972;4.618;2022-09-09T00:09:47;-25482.94;;;14.78;100.00
38058;BME280;23862;51.972;4.618;2022-09-09T00:15:00;-25481.06;;;14.71;100.00
38058;BME280;23862;51.972;4.618;2022-09-09T00:17:43;-25480.03;;;14.68;100.00
38058;BME280;23862;51.972;4.618;2022-09-09T00:22:48;-25478.56;;;14.63;100.00
38058;BME280;23862;51.972;4.618;2022-09-09T00:25:19;-25476.53;;;14.55;100.00
38058;BME280;23862;51.972;4.618;2022-09-09T00:27:48;-25476.09;;;14.54;100.00
38058;BME280;23862;51.972;4.618;2022-09-09T00:32:43;-25475.38;;;14.51;100.00
38058;BME280;23862;51.972;4.618;2022-09-09T00:35:22;-25475.22;;;14.51;100.00
38058;BME280;23862;51.972;4.618;2022-09-09T00:37:50;-25474.19;;;14.47;100.00
38058;BME280;23862;51.972;4.618;2022-09-09T00:40:23;-25472.59;;;14.42;100.00
38058;BME280;23862;51.972;4.618;2022-09-09T00:42:51;-25473.19;;;14.44;100.00
38058;BME280;23862;51.972;4.618;2022-09-09T00:45:28;-25472.75;;;14.42;100.00
38058;BME280;23862;51.972;4.618;2022-09-09T00:47:58;-25472.16;;;14.40;100.00
38058;BME280;23862;51.972;4.618;2022-09-09T00:50:47;-25471.16;;;14.36;100.00
38058;BME280;23862;51.972;4.618;2022-09-09T00:58:24;-25471.28;;;14.37;100.00
38058;BME280;23862;51.972;4.618;2022-09-09T01:00:53;-25471.72;;;14.39;100.00
38058;BME280;23862;51.972;4.618;2022-09-09T01:10:58;-25468.66;;;14.28;100.00
38058;BME280;23862;51.972;4.618;2022-09-09T01:13:32;-25468.81;;;14.28;100.00
38058;BME280;23862;51.972;4.618;2022-09-09T01:15:59;-25468.66;;;14.28;100.00
38058;BME280;23862;51.972;4.618;2022-09-09T01:18:26;-25468.53;;;14.27;100.00
38058;BME280;23862;51.972;4.618;2022-09-09T01:26:15;-25472.31;;;14.41;100.00
38058;BME280;23862;51.972;4.618;2022-09-09T01:28:44;-25473.34;;;14.44;100.00
38058;BME280;23862;51.972;4.618;2022-09-09T01:31:11;-25473.91;;;14.46;100.00
38058;BME280;23862;51.972;4.618;2022-09-09T01:33:39;-25474.34;;;14.48;100.00
38058;BME280;23862;51.972;4.618;2022-09-09T01:36:06;-25475.22;;;14.51;100.00
38058;BME280;23862;51.972;4.618;2022-09-09T01:38:33;-25476.09;;;14.54;100.00
38058;BME280;23862;51.972;4.618;2022-09-09T01:40:59;-25475.94;;;14.53;100.00
38058;BME280;23862;51.972;4.618;2022-09-09T01:43:26;-25475.38;;;14.51;100.00
38058;BME280;23862;51.972;4.618;2022-09-09T01:45:55;-25475.22;;;14.51;100.00
38058;BME280;23862;51.972;4.618;2022-09-09T01:48:21;-25473.63;;;14.45;100.00
38058;BME280;23862;51.972;4.618;2022-09-09T01:50:47;-25473.03;;;14.43;100.00
38058;BME280;23862;51.972;4.618;2022-09-09T01:53:13;-25471.59;;;14.38;100.00
38058;BME280;23862;51.972;4.618;2022-09-09T01:55:42;-25469.97;;;14.32;100.00
38058;BME280;23862;51.972;4.618;2022-09-09T02:00:44;-25469.97;;;14.32;100.00
38058;BME280;23862;51.972;4.618;2022-09-09T02:03:27;-25469.41;;;14.30;100.00
38058;BME280;23862;51.972;4.618;2022-09-09T02:08:26;-25470.28;;;14.33;100.00
38058;BME280;23862;51.972;4.618;2022-09-09T02:11:07;-25470.84;;;14.35;100.00
38058;BME280;23862;51.972;4.618;2022-09-09T02:13:37;-25471.59;;;14.38;100.00
38058;BME280;23862;51.972;4.618;2022-09-09T02:21:32;-25469.53;;;14.31;100.00
38058;BME280;23862;51.972;4.618;2022-09-09T02:24:00;-25470.28;;;14.33;100.00
38058;BME280;23862;51.972;4.618;2022-09-09T02:26:29;-25469.53;;;14.31;100.00
38058;BME280;23862;51.972;4.618;2022-09-09T02:28:55;-25469.41;;;14.30;100.00
38058;BME280;23862;51.972;4.618;2022-09-09T02:31:23;-25469.41;;;14.30;100.00
38058;BME280;23862;51.972;4.618;2022-09-09T02:33:53;-25468.38;;;14.27;100.00
38058;BME280;23862;51.972;4.618;2022-09-09T02:36:20;-25467.34;;;14.23;100.00
38058;BME280;23862;51.972;4.618;2022-09-09T02:38:48;-25466.78;;;14.21;100.00
38058;BME280;23862;51.972;4.618;2022-09-09T02:41:16;-25467.06;;;14.22;100.00
38058;BME280;23862;51.972;4.618;2022-09-09T02:43:43;-25466.47;;;14.20;100.00
38058;BME280;23862;51.972;4.618;2022-09-09T02:51:44;-25465.03;;;14.15;100.00
38058;BME280;23862;51.972;4.618;2022-09-09T02:56:51;-25463.56;;;14.10;100.00
38058;BME280;23862;51.972;4.618;2022-09-09T02:59:17;-25462.69;;;14.07;100.00
38058;BME280;23862;51.972;4.618;2022-09-09T03:01:43;-25463.28;;;14.09;100.00
38058;BME280;23862;51.972;4.618;2022-09-09T03:04:13;-25462.41;;;14.06;100.00
38058;BME280;23862;51.972;4.618;2022-09-09T03:06:38;-25462.09;;;14.05;100.00
38058;BME280;23862;51.972;4.618;2022-09-09T03:09:04;-25462.25;;;14.05;100.00
38058;BME280;23862;51.972;4.618;2022-09-09T03:11:29;-25462.69;;;14.07;100.00
38058;BME280;23862;51.972;4.618;2022-09-09T03:13:54;-25462.69;;;14.07;100.00
38058;BME280;23862;51.972;4.618;2022-09-09T03:16:21;-25463.72;;;14.10;100.00
38058;BME280;23862;51.972;4.618;2022-09-09T03:18:46;-25462.41;;;14.06;100.00
38058;BME280;23862;51.972;4.618;2022-09-09T03:21:12;-25462.84;;;14.07;100.00
38058;BME280;23862;51.972;4.618;2022-09-09T03:23:41;-25463.28;;;14.09;100.00
38058;BME280;23862;51.972;4.618;2022-09-09T03:26:10;-25463.72;;;14.10;100.00
38058;BME280;23862;51.972;4.618;2022-09-09T03:28:35;-25464.88;;;14.14;100.00
38058;BME280;23862;51.972;4.618;2022-09-09T03:31:01;-25464.00;;;14.11;100.00
38058;BME280;23862;51.972;4.618;2022-09-09T03:33:26;-25463.13;;;14.08;100.00
38058;BME280;23862;51.972;4.618;2022-09-09T03:35:52;-25462.84;;;14.07;100.00
38058;BME280;23862;51.972;4.618;2022-09-09T03:38:18;-25462.97;;;14.08;100.00
38058;BME280;23862;51.972;4.618;2022-09-09T03:40:50;-25462.53;;;14.06;100.00
38058;BME280;23862;51.972;4.618;2022-09-09T03:43:17;-25463.13;;;14.08;100.00
38058;BME280;23862;51.972;4.618;2022-09-09T03:45:45;-25460.78;;;14.00;100.00
38058;BME280;23862;51.972;4.618;2022-09-09T03:48:12;-25460.34;;;13.98;100.00
38058;BME280;23862;51.972;4.618;2022-09-09T03:50:37;-25462.09;;;14.05;100.00
38058;BME280;23862;51.972;4.618;2022-09-09T03:53:04;-25461.66;;;14.03;100.00
38058;BME280;23862;51.972;4.618;2022-09-09T03:55:31;-25460.78;;;14.00;100.00
38058;BME280;23862;51.972;4.618;2022-09-09T03:57:56;-25460.94;;;14.00;100.00
38058;BME280;23862;51.972;4.618;2022-09-09T04:00:21;-25460.94;;;14.00;100.00
38058;BME280;23862;51.972;4.618;2022-09-09T04:02:47;-25461.09;;;14.01;100.00
38058;BME280;23862;51.972;4.618;2022-09-09T04:05:14;-25460.06;;;13.97;100.00
38058;BME280;23862;51.972;4.618;2022-09-09T04:07:40;-25459.78;;;13.96;100.00
38058;BME280;23862;51.972;4.618;2022-09-09T04:10:06;-25458.91;;;13.93;100.00
38058;BME280;23862;51.972;4.618;2022-09-09T04:12:33;-25459.19;;;13.94;100.00
38058;BME280;23862;51.972;4.618;2022-09-09T04:14:59;-25459.19;;;13.94;100.00
38058;BME280;23862;51.972;4.618;2022-09-09T04:17:25;-25458.91;;;13.93;100.00
38058;BME280;23862;51.972;4.618;2022-09-09T04:19:51;-25459.47;;;13.95;100.00
38058;BME280;23862;51.972;4.618;2022-09-09T04:22:18;-25459.03;;;13.94;100.00
38058;BME280;23862;51.972;4.618;2022-09-09T04:24:44;-25458.16;;;13.91;100.00
38058;BME280;23862;51.972;4.618;2022-09-09T04:27:09;-25457.44;;;13.88;100.00
38058;BME280;23862;51.972;4.618;2022-09-09T04:29:34;-25457.44;;;13.88;100.00
38058;BME280;23862;51.972;4.618;2022-09-09T04:32:00;-25457.59;;;13.89;100.00
38058;BME280;23862;51.972;4.618;2022-09-09T04:34:30;-25457.28;;;13.88;100.00
38058;BME280;23862;51.972;4.618;2022-09-09T04:36:56;-25457.00;;;13.87;100.00
38058;BME280;23862;51.972;4.618;2022-09-09T04:39:22;-25457.88;;;13.90;100.00
38058;BME280;23862;51.972;4.618;2022-09-09T04:41:47;-25459.78;;;13.96;100.00
38058;BME280;23862;51.972;4.618;2022-09-09T04:44:13;-25458.91;;;13.93;100.00
38058;BME280;23862;51.972;4.618;2022-09-09T04:46:38;-25459.19;;;13.94;100.00
38058;BME280;23862;51.972;4.618;2022-09-09T04:49:05;-25459.03;;;13.94;100.00
38058;BME280;23862;51.972;4.618;2022-09-09T04:51:30;-25458.47;;;13.92;100.00
38058;BME280;23862;51.972;4.618;2022-09-09T04:56:25;-25457.44;;;13.88;100.00
38058;BME280;23862;51.972;4.618;2022-09-09T04:58:53;-25456.13;;;13.83;100.00
38058;BME280;23862;51.972;4.618;2022-09-09T05:01:19;-25454.81;;;13.79;100.00
38058;BME280;23862;51.972;4.618;2022-09-09T05:03:48;-25455.25;;;13.80;100.00
38058;BME280;23862;51.972;4.618;2022-09-09T05:06:31;-25454.53;;;13.78;100.00
38058;BME280;23862;51.972;4.618;2022-09-09T05:09:01;-25456.41;;;13.85;100.00
38058;BME280;23862;51.972;4.618;2022-09-09T05:11:27;-25456.84;;;13.86;100.00
38058;BME280;23862;51.972;4.618;2022-09-09T05:13:57;-25456.56;;;13.85;100.00
38058;BME280;23862;51.972;4.618;2022-09-09T05:16:23;-25456.84;;;13.86;100.00
38058;BME280;23862;51.972;4.618;2022-09-09T05:18:48;-25457.44;;;13.88;100.00
38058;BME280;23862;51.972;4.618;2022-09-09T05:21:15;-25457.00;;;13.87;100.00
38058;BME280;23862;51.972;4.618;2022-09-09T05:23:42;-25455.97;;;13.83;100.00
38058;BME280;23862;51.972;4.618;2022-09-09T05:26:09;-25458.03;;;13.90;100.00
38058;BME280;23862;51.972;4.618;2022-09-09T05:28:36;-25459.63;;;13.96;100.00
38058;BME280;23862;51.972;4.618;2022-09-09T05:31:02;-25464.72;;;14.14;100.00
38058;BME280;23862;51.972;4.618;2022-09-09T05:33:35;-25471.72;;;14.39;100.00
38058;BME280;23862;51.972;4.618;2022-09-09T05:36:07;-25479.16;;;14.65;100.00
38058;BME280;23862;51.972;4.618;2022-09-09T05:38:33;-25479.00;;;14.64;100.00
38058;BME280;23862;51.972;4.618;2022-09-09T05:40:59;-25493.00;;;15.14;100.00
38058;BME280;23862;51.972;4.618;2022-09-09T05:43:25;-25507.69;;;15.66;100.00
38058;BME280;23862;51.972;4.618;2022-09-09T05:46:04;-25520.63;;;16.11;100.00
38058;BME280;23862;51.972;4.618;2022-09-09T05:48:33;-25518.44;;;16.04;100.00
38058;BME280;23862;51.972;4.618;2022-09-09T05:50:59;-25512.06;;;15.81;100.00
38058;BME280;23862;51.972;4.618;2022-09-09T05:53:25;-25508.84;;;15.70;100.00
38058;BME280;23862;51.972;4.618;2022-09-09T05:55:57;-25508.28;;;15.68;100.00
38058;BME280;23862;51.972;4.618;2022-09-09T05:58:23;-25508.84;;;15.70;100.00
38058;BME280;23862;51.972;4.618;2022-09-09T06:00:49;-25509.88;;;15.73;100.00
38058;BME280;23862;51.972;4.618;2022-09-09T06:03:17;-25507.69;;;15.66;100.00
38058;BME280;23862;51.972;4.618;2022-09-09T06:05:42;-25508.84;;;15.70;100.00
38058;BME280;23862;51.972;4.618;2022-09-09T06:08:07;-25510.72;;;15.76;100.00
38058;BME280;23862;51.972;4.618;2022-09-09T06:10:33;-25513.50;;;15.86;100.00
38058;BME280;23862;51.972;4.618;2022-09-09T06:12:59;-25512.63;;;15.83;100.00
38058;BME280;23862;51.972;4.618;2022-09-09T06:15:24;-25513.34;;;15.86;100.00
38058;BME280;23862;51.972;4.618;2022-09-09T06:17:54;-25510.88;;;15.77;100.00
38058;BME280;23862;51.972;4.618;2022-09-09T06:20:21;-25507.25;;;15.64;100.00
38058;BME280;23862;51.972;4.618;2022-09-09T06:22:52;-25506.38;;;15.61;100.00
38058;BME280;23862;51.972;4.618;2022-09-09T06:25:17;-25504.63;;;15.55;100.00
38058;BME280;23862;51.972;4.618;2022-09-09T06:27:43;-25505.78;;;15.59;100.00
38058;BME280;23862;51.972;4.618;2022-09-09T06:30:12;-25508.69;;;15.69;100.00
38058;BME280;23862;51.972;4.618;2022-09-09T06:32:39;-25509.88;;;15.73;100.00
38058;BME280;23862;51.972;4.618;2022-09-09T06:35:05;-25515.69;;;15.94;100.00
38058;BME280;23862;51.972;4.618;2022-09-09T06:37:31;-25521.06;;;16.13;100.00
38058;BME280;23862;51.972;4.618;2022-09-09T06:39:56;-25519.91;;;16.09;100.00
38058;BME280;23862;51.972;4.618;2022-09-09T06:42:21;-25512.91;;;15.84;100.00
38058;BME280;23862;51.972;4.618;2022-09-09T06:44:46;-25511.47;;;15.79;100.00
38058;BME280;23862;51.972;4.618;2022-09-09T06:47:12;-25511.47;;;15.79;100.00
38058;BME280;23862;51.972;4.618;2022-09-09T06:49:37;-25511.91;;;15.81;100.00
38058;BME280;23862;51.972;4.618;2022-09-09T06:52:02;-25512.78;;;15.84;100.00
38058;BME280;23862;51.972;4.618;2022-09-09T06:54:28;-25512.34;;;15.82;100.00
38058;BME280;23862;51.972;4.618;2022-09-09T06:56:53;-25513.22;;;15.85;100.00
38058;BME280;23862;51.972;4.618;2022-09-09T06:59:18;-25512.19;;;15.82;100.00
38058;BME280;23862;51.972;4.618;2022-09-09T07:01:44;-25515.09;;;15.92;100.00
38058;BME280;23862;51.972;4.618;2022-09-09T07:04:09;-25515.41;;;15.93;100.00
38058;BME280;23862;51.972;4.618;2022-09-09T07:06:43;-25515.41;;;15.93;100.00
38058;BME280;23862;51.972;4.618;2022-09-09T07:09:10;-25514.97;;;15.91;100.00
38058;BME280;23862;51.972;4.618;2022-09-09T07:11:39;-25519.31;;;16.07;100.00
38058;BME280;23862;51.972;4.618;2022-09-09T07:14:06;-25520.19;;;16.10;100.00
38058;BME280;23862;51.972;4.618;2022-09-09T07:16:32;-25520.91;;;16.12;100.00
38058;BME280;23862;51.972;4.618;2022-09-09T07:18:58;-25523.81;;;16.23;100.00
38058;BME280;23862;51.972;4.618;2022-09-09T07:21:24;-25522.22;;;16.17;100.00
38058;BME280;23862;51.972;4.618;2022-09-09T07:23:51;-25522.94;;;16.20;100.00
38058;BME280;23862;51.972;4.618;2022-09-09T07:26:17;-25524.25;;;16.24;100.00
38058;BME280;23862;51.972;4.618;2022-09-09T07:28:44;-25522.94;;;16.20;100.00
38058;BME280;23862;51.972;4.618;2022-09-09T07:33:41;-25519.47;;;16.07;100.00
38058;BME280;23862;51.972;4.618;2022-09-09T07:36:10;-25521.06;;;16.13;100.00
38058;BME280;23862;51.972;4.618;2022-09-09T07:38:47;-25519.16;;;16.06;100.00
38058;BME280;23862;51.972;4.618;2022-09-09T07:41:20;-25518.00;;;16.02;100.00
38058;BME280;23862;51.972;4.618;2022-09-09T07:43:46;-25517.13;;;15.99;100.00
38058;BME280;23862;51.972;4.618;2022-09-09T07:46:13;-25516.13;;;15.95;100.00
38058;BME280;23862;51.972;4.618;2022-09-09T07:48:39;-25515.09;;;15.92;100.00
38058;BME280;23862;51.972;4.618;2022-09-09T07:51:09;-25510.72;;;15.76;100.00
38058;BME280;23862;51.972;4.618;2022-09-09T07:53:36;-25511.75;;;15.80;100.00
38058;BME280;23862;51.972;4.618;2022-09-09T07:56:03;-25512.06;;;15.81;100.00
38058;BME280;23862;51.972;4.618;2022-09-09T07:58:29;-25512.50;;;15.83;100.00
38058;BME280;23862;51.972;4.618;2022-09-09T08:00:54;-25513.34;;;15.86;100.00
38058;BME280;23862;51.972;4.618;2022-09-09T08:03:19;-25512.34;;;15.82;100.00
38058;BME280;23862;51.972;4.618;2022-09-09T08:05:47;-25512.91;;;15.84;100.00
38058;BME280;23862;51.972;4.618;2022-09-09T08:08:12;-25513.66;;;15.87;100.00
38058;BME280;23862;51.972;4.618;2022-09-09T08:10:37;-25517.13;;;15.99;100.00
38058;BME280;23862;51.972;4.618;2022-09-09T08:13:02;-25514.97;;;15.91;100.00
38058;BME280;23862;51.972;4.618;2022-09-09T08:15:28;-25516.13;;;15.95;100.00
38058;BME280;23862;51.972;4.618;2022-09-09T08:17:55;-25516.56;;;15.97;100.00
38058;BME280;23862;51.972;4.618;2022-09-09T08:20:21;-25516.69;;;15.97;100.00
38058;BME280;23862;51.972;4.618;2022-09-09T08:22:48;-25517.13;;;15.99;100.00
38058;BME280;23862;51.972;4.618;2022-09-09T08:25:14;-25518.44;;;16.04;100.00
38058;BME280;23862;51.972;4.618;2022-09-09T08:27:40;-25520.91;;;16.12;100.00
38058;BME280;23862;51.972;4.618;2022-09-09T08:30:05;-25521.63;;;16.15;100.00
38058;BME280;23862;51.972;4.618;2022-09-09T08:32:32;-25522.66;;;16.19;100.00
38058;BME280;23862;51.972;4.618;2022-09-09T08:34:57;-25522.06;;;16.17;100.00
38058;BME280;23862;51.972;4.618;2022-09-09T08:37:22;-25519.47;;;16.07;100.00
38058;BME280;23862;51.972;4.618;2022-09-09T08:39:47;-25518.16;;;16.03;100.00
38058;BME280;23862;51.972;4.618;2022-09-09T08:45:09;-25520.91;;;16.12;100.00
38058;BME280;23862;51.972;4.618;2022-09-09T08:47:43;-25520.34;;;16.10;100.00
38058;BME280;23862;51.972;4.618;2022-09-09T08:50:28;-25520.34;;;16.10;100.00
38058;BME280;23862;51.972;4.618;2022-09-09T08:57:57;-25518.59;;;16.04;100.00
38058;BME280;23862;51.972;4.618;2022-09-09T09:00:28;-25515.97;;;15.95;100.00
38058;BME280;23862;51.972;4.618;2022-09-09T09:03:05;-25512.50;;;15.83;100.00
38058;BME280;23862;51.972;4.618;2022-09-09T09:08:13;-25513.94;;;15.88;100.00
38058;BME280;23862;51.972;4.618;2022-09-09T09:13:30;-25515.09;;;15.92;100.00
38058;BME280;23862;51.972;4.618;2022-09-09T09:15:55;-25515.09;;;15.92;100.00
38058;BME280;23862;51.972;4.618;2022-09-09T09:18:22;-25514.38;;;15.89;100.00
38058;BME280;23862;51.972;4.618;2022-09-09T09:23:16;-25513.94;;;15.88;100.00
38058;BME280;23862;51.972;4.618;2022-09-09T09:25:44;-25515.09;;;15.92;100.00
38058;BME280;23862;51.972;4.618;2022-09-09T09:30:36;-25517.56;;;16.01;100.00
38058;BME280;23862;51.972;4.618;2022-09-09T09:35:38;-25517.13;;;15.99;100.00
38058;BME280;23862;51.972;4.618;2022-09-09T09:38:11;-25521.63;;;16.15;100.00
38058;BME280;23862;51.972;4.618;2022-09-09T09:40:48;-25522.81;;;16.19;100.00
38058;BME280;23862;51.972;4.618;2022-09-09T09:43:17;-25524.25;;;16.24;100.00
38058;BME280;23862;51.972;4.618;2022-09-09T09:45:45;-25524.97;;;16.27;100.00
38058;BME280;23862;51.972;4.618;2022-09-09T09:48:11;-25528.47;;;16.39;100.00
38058;BME280;23862;51.972;4.618;2022-09-09T09:53:27;-25543.56;;;16.93;100.00
38058;BME280;23862;51.972;4.618;2022-09-09T09:55:57;-25558.94;;;17.47;100.00
38058;BME280;23862;51.972;4.618;2022-09-09T09:58:23;-25569.78;;;17.86;100.00
38058;BME280;23862;51.972;4.618;2022-09-09T10:00:50;-25576.03;;;18.08;100.00
38058;BME280;23862;51.972;4.618;2022-09-09T10:05:52;-25569.50;;;17.85;100.00
38058;BME280;23862;51.972;4.618;2022-09-09T10:08:17;-25566.31;;;17.73;100.00
38058;BME280;23862;51.972;4.618;2022-09-09T10:13:34;-25558.78;;;17.47;100.00
38058;BME280;23862;51.972;4.618;2022-09-09T10:16:16;-25557.34;;;17.41;100.00
38058;BME280;23862;51.972;4.618;2022-09-09T10:23:51;-25545.31;;;16.99;100.00
38058;BME280;23862;51.972;4.618;2022-09-09T10:36:40;-25539.63;;;16.79;100.00
38058;BME280;23862;51.972;4.618;2022-09-09T10:39:18;-25539.78;;;16.79;100.00
38058;BME280;23862;51.972;4.618;2022-09-09T10:44:26;-25542.97;;;16.91;100.00
38058;BME280;23862;51.972;4.618;2022-09-09T10:52:16;-25544.00;;;16.94;100.00
38058;BME280;23862;51.972;4.618;2022-09-09T10:59:54;-25537.47;;;16.71;100.00
38058;BME280;23862;51.972;4.618;2022-09-09T11:05:30;-25536.75;;;16.68;100.00
38058;BME280;23862;51.972;4.618;2022-09-09T11:07:40;-25535.16;;;16.63;100.00
38058;BME280;23862;51.972;4.618;2022-09-09T11:10:18;-25542.69;;;16.90;100.00
38058;BME280;23862;51.972;4.618;2022-09-09T11:12:46;-25543.72;;;16.93;100.00
38058;BME280;23862;51.972;4.618;2022-09-09T11:15:20;-25552.25;;;17.23;100.00
38058;BME280;23862;51.972;4.618;2022-09-09T11:17:49;-25555.00;;;17.33;100.00
38058;BME280;23862;51.972;4.618;2022-09-09T11:20:15;-25558.94;;;17.47;100.00
38058;BME280;23862;51.972;4.618;2022-09-09T11:25:26;-25569.06;;;17.83;100.00
38058;BME280;23862;51.972;4.618;2022-09-09T11:28:02;-25571.41;;;17.91;100.00
38058;BME280;23862;51.972;4.618;2022-09-09T11:36:03;-25575.72;;;18.07;100.00
38058;BME280;23862;51.972;4.618;2022-09-09T11:41:02;-25574.28;;;18.02;100.00
38058;BME280;23862;51.972;4.618;2022-09-09T11:43:31;-25567.91;;;17.79;100.00
38058;BME280;23862;51.972;4.618;2022-09-09T11:45:59;-25562.69;;;17.61;100.00
38058;BME280;23862;51.972;4.618;2022-09-09T11:48:31;-25555.59;;;17.35;100.00
38058;BME280;23862;51.972;4.618;2022-09-09T11:50:58;-25543.28;;;16.92;100.00
38058;BME280;23862;51.972;4.618;2022-09-09T11:53:23;-25537.47;;;16.71;100.00
38058;BME280;23862;51.972;4.618;2022-09-09T11:58:31;-25537.91;;;16.73;100.00
38058;BME280;23862;51.972;4.618;2022-09-09T12:01:00;-25533.41;;;16.57;100.00
38058;BME280;23862;51.972;4.618;2022-09-09T12:05:57;-25532.09;;;16.52;100.00
38058;BME280;23862;51.972;4.618;2022-09-09T12:08:27;-25528.03;;;16.38;100.00
38058;BME280;23862;51.972;4.618;2022-09-09T12:10:57;-25530.34;;;16.46;100.00
38058;BME280;23862;51.972;4.618;2022-09-09T12:13:25;-25529.34;;;16.42;100.00
38058;BME280;23862;51.972;4.618;2022-09-09T12:15:55;-25528.75;;;16.40;100.00
38058;BME280;23862;51.972;4.618;2022-09-09T12:18:25;-25527.31;;;16.35;100.00
38058;BME280;23862;51.972;4.618;2022-09-09T12:21:36;-25528.19;;;16.38;100.00
38058;BME280;23862;51.972;4.618;2022-09-09T12:33:36;-25523.09;;;16.20;100.00
38058;BME280;23862;51.972;4.618;2022-09-09T12:36:02;-25528.63;;;16.40;100.00
38058;BME280;23862;51.972;4.618;2022-09-09T12:38:34;-25532.09;;;16.52;100.00
38058;BME280;23862;51.972;4.618;2022-09-09T12:40:59;-25538.03;;;16.73;100.00
38058;BME280;23862;51.972;4.618;2022-09-09T12:43:28;-25540.22;;;16.81;100.00
38058;BME280;23862;51.972;4.618;2022-09-09T12:45:57;-25540.50;;;16.82;100.00
38058;BME280;23862;51.972;4.618;2022-09-09T12:48:28;-25535.72;;;16.65;100.00
38058;BME280;23862;51.972;4.618;2022-09-09T12:50:55;-25534.72;;;16.61;100.00
38058;BME280;23862;51.972;4.618;2022-09-09T12:53:25;-25535.72;;;16.65;100.00
38058;BME280;23862;51.972;4.618;2022-09-09T12:55:52;-25535.16;;;16.63;100.00
38058;BME280;23862;51.972;4.618;2022-09-09T12:58:19;-25534.84;;;16.62;100.00
38058;BME280;23862;51.972;4.618;2022-09-09T13:00:49;-25531.81;;;16.51;100.00
38058;BME280;23862;51.972;4.618;2022-09-09T13:03:17;-25530.78;;;16.47;100.00
38058;BME280;23862;51.972;4.618;2022-09-09T13:05:43;-25532.81;;;16.55;100.00
38058;BME280;23862;51.972;4.618;2022-09-09T13:08:09;-25531.22;;;16.49;100.00
38058;BME280;23862;51.972;4.618;2022-09-09T13:10:37;-25528.47;;;16.39;100.00
38058;BME280;23862;51.972;4.618;2022-09-09T13:13:05;-25526.00;;;16.30;100.00
38058;BME280;23862;51.972;4.618;2022-09-09T13:15:38;-25528.75;;;16.40;100.00
38058;BME280;23862;51.972;4.618;2022-09-09T13:18:04;-25532.38;;;16.53;100.00
38058;BME280;23862;51.972;4.618;2022-09-09T13:20:31;-25533.09;;;16.56;100.00
38058;BME280;23862;51.972;4.618;2022-09-09T13:22:57;-25533.69;;;16.58;100.00
38058;BME280;23862;51.972;4.618;2022-09-09T13:25:29;-25534.72;;;16.61;100.00
38058;BME280;23862;51.972;4.618;2022-09-09T13:28:04;-25544.28;;;16.95;100.00
38058;BME280;23862;51.972;4.618;2022-09-09T13:30:31;-25553.44;;;17.28;100.00
38058;BME280;23862;51.972;4.618;2022-09-09T13:33:39;-25571.69;;;17.92;100.00
38058;BME280;23862;51.972;4.618;2022-09-09T13:35:49;-25576.91;;;18.11;100.00
38058;BME280;23862;51.972;4.618;2022-09-09T13:38:15;-25575.88;;;18.07;100.00
38058;BME280;23862;51.972;4.618;2022-09-09T13:40:40;-25581.38;;;18.27;100.00
38058;BME280;23862;51.972;4.618;2022-09-09T13:43:19;-25586.88;;;18.46;100.00
38058;BME280;23862;51.972;4.618;2022-09-09T13:45:52;-25587.59;;;18.49;100.00
38058;BME280;23862;51.972;4.618;2022-09-09T13:48:18;-25583.25;;;18.34;100.00
38058;BME280;23862;51.972;4.618;2022-09-09T13:50:52;-25580.66;;;18.24;100.00
38058;BME280;23862;51.972;4.618;2022-09-09T13:53:19;-25576.59;;;18.10;100.00
38058;BME280;23862;51.972;4.618;2022-09-09T13:55:45;-25574.72;;;18.03;100.00
38058;BME280;23862;51.972;4.618;2022-09-09T13:58:16;-25561.84;;;17.57;100.00
38058;BME280;23862;51.972;4.618;2022-09-09T14:00:46;-25550.53;;;17.17;100.00
38058;BME280;23862;51.972;4.618;2022-09-09T14:03:12;-25539.22;;;16.77;100.00
38058;BME280;23862;51.972;4.618;2022-09-09T14:05:37;-25533.69;;;16.58;100.00
38058;BME280;23862;51.972;4.618;2022-09-09T14:08:06;-25531.66;;;16.50;100.00
38058;BME280;23862;51.972;4.618;2022-09-09T14:10:32;-25528.63;;;16.40;100.00
38058;BME280;23862;51.972;4.618;2022-09-09T14:12:57;-25527.31;;;16.35;100.00
38058;BME280;23862;51.972;4.618;2022-09-09T14:15:22;-25528.19;;;16.38;100.00
38058;BME280;23862;51.972;4.618;2022-09-09T14:17:48;-25527.16;;;16.35;100.00
38058;BME280;23862;51.972;4.618;2022-09-09T14:20:13;-25526.56;;;16.32;100.00
38058;BME280;23862;51.972;4.618;2022-09-09T14:22:40;-25527.00;;;16.34;100.00
38058;BME280;23862;51.972;4.618;2022-09-09T14:25:05;-25528.47;;;16.39;100.00
38058;BME280;23862;51.972;4.618;2022-09-09T14:27:31;-25529.63;;;16.43;100.00
38058;BME280;23862;51.972;4.618;2022-09-09T14:29:57;-25528.47;;;16.39;100.00
38058;BME280;23862;51.972;4.618;2022-09-09T14:32:24;-25530.06;;;16.45;100.00
38058;BME280;23862;51.972;4.618;2022-09-09T14:34:50;-25532.53;;;16.54;100.00
38058;BME280;23862;51.972;4.618;2022-09-09T14:37:16;-25535.00;;;16.62;100.00
38058;BME280;23862;51.972;4.618;2022-09-09T14:39:41;-25537.91;;;16.73;100.00
38058;BME280;23862;51.972;4.618;2022-09-09T14:42:09;-25540.50;;;16.82;100.00
38058;BME280;23862;51.972;4.618;2022-09-09T14:44:36;-25542.84;;;16.90;100.00
38058;BME280;23862;51.972;4.618;2022-09-09T14:47:02;-25547.19;;;17.05;100.00
38058;BME280;23862;51.972;4.618;2022-09-09T14:49:27;-25548.22;;;17.09;100.00
38058;BME280;23862;51.972;4.618;2022-09-09T14:51:53;-25553.00;;;17.26;100.00
38058;BME280;23862;51.972;4.618;2022-09-09T14:54:18;-25560.97;;;17.54;100.00
38058;BME280;23862;51.972;4.618;2022-09-09T14:56:43;-25568.78;;;17.82;100.00
38058;BME280;23862;51.972;4.618;2022-09-09T14:59:09;-25572.56;;;17.96;100.00
38058;BME280;23862;51.972;4.618;2022-09-09T15:01:34;-25573.84;;;18.00;100.00
38058;BME280;23862;51.972;4.618;2022-09-09T15:04:00;-25578.91;;;18.18;100.00
38058;BME280;23862;51.972;4.618;2022-09-09T15:06:26;-25580.94;;;18.25;100.00